Strona główna
METAR-TAF:

METAR-TAF

Lotnisko :

Port lotniczy Kasane

Kasane, Botswana

Szerokość geograficzna: 17-49S, Długość geograficzna: 025-09E, wysokość: 968 m

Aktualna obserwacja pogody

Raport powstał 5 godziny i 17 minut temu, godzina 18:00 UTC
Wiatr 4 kt od południowy wschód
Temperatura 20°C
Wilgotność 24%
Ciśnienie 1022 hPa
Widzialność 10 km lub więcej
Brak chmur poniżej 1500 m i brak chmur cumulonimbus

METAR: FBKE 171800Z 13004KT CAVOK 20/M01 Q1022

czas: 01:17 (23:17 UTC)

Prognoza

Raport powstał 11 godziny i 17 minut temu, godzina 12:00 UTC
Prognoza ważna od 17 godzina 15 UTC do 17 godzina 24 UTC
Wiatr 13 kt od wschód
Widzialność 10 km lub więcej
Brak chmur poniżej 1500 m i brak chmur cumulonimbus

TAF: FBKE 171200Z 1715/1724 08013KT CAVOK

Obserwacja i prognoza pogody dla ponad 4000 lotnisk (raport METAR i TAF).

Dostępne stacje oznaczono żółtymi i czerwonymi punktami na mapie.

Najedź kursorem aby zobaczyć nazwę stacji.

Kliknij aby zobaczyć obserwacje i prognozy pogody.

Aby zmienić mapę: kliknij na zielony przycisk z czarnym krzyżykiem, aby powiększyć; na zielony przycisk z myślnikiem, aby pomniejszyć; na zielone strzałki, aby przejść do map sąsiednich.


METAR-TAF: